createdAt,value
2019-01-20T00:00:25.831Z,990.39
2019-01-20T00:01:25.954Z,990.37
2019-01-20T00:02:26.121Z,990.37
2019-01-20T00:03:26.272Z,990.34
2019-01-20T00:04:26.426Z,990.34
2019-01-20T00:05:26.637Z,990.32
2019-01-20T00:06:26.768Z,990.31
2019-01-20T00:07:26.956Z,990.29
2019-01-20T00:08:27.098Z,990.29
2019-01-20T00:09:27.309Z,990.26
2019-01-20T00:10:27.489Z,990.27
2019-01-20T00:11:27.672Z,990.25
2019-01-20T00:12:27.838Z,990.25
2019-01-20T00:13:28.006Z,990.25
2019-01-20T00:14:28.172Z,990.20
2019-01-20T00:15:28.381Z,990.28
2019-01-20T00:16:28.491Z,990.22
2019-01-20T00:17:28.675Z,990.18
2019-01-20T00:18:29.394Z,990.24
2019-01-20T00:19:28.992Z,990.28
2019-01-20T00:20:29.187Z,990.24
2019-01-20T00:21:29.336Z,990.27
2019-01-20T00:22:29.484Z,990.25
2019-01-20T00:23:29.669Z,990.24
2019-01-20T00:24:29.815Z,990.21
2019-01-20T00:25:29.998Z,990.21
2019-01-20T00:26:30.170Z,990.19
2019-01-20T00:27:30.323Z,990.19
2019-01-20T00:28:30.502Z,990.21
2019-01-20T00:29:30.676Z,990.14
2019-01-20T00:30:30.838Z,990.16
2019-01-20T00:31:31.007Z,990.16
2019-01-20T00:32:31.171Z,990.18
2019-01-20T00:33:31.335Z,990.20
2019-01-20T00:34:31.510Z,990.14
2019-01-20T00:35:31.664Z,990.15
2019-01-20T00:36:31.832Z,990.18
2019-01-20T00:37:31.991Z,990.17
2019-01-20T00:38:32.157Z,990.16
2019-01-20T00:39:32.320Z,990.13
2019-01-20T00:40:32.489Z,990.18
2019-01-20T00:41:32.667Z,990.18
2019-01-20T00:42:32.826Z,990.18
2019-01-20T00:43:32.979Z,990.19
2019-01-20T00:44:33.157Z,990.16
2019-01-20T00:45:33.331Z,990.13
2019-01-20T00:46:33.475Z,990.16
2019-01-20T00:47:33.645Z,990.14
2019-01-20T00:48:33.805Z,990.08
2019-01-20T00:49:33.972Z,990.12
2019-01-20T00:50:34.135Z,990.11
2019-01-20T00:51:34.301Z,990.07
2019-01-20T00:52:34.465Z,990.12
2019-01-20T00:53:34.629Z,990.14
2019-01-20T00:54:34.787Z,990.11
2019-01-20T00:55:34.965Z,990.14
2019-01-20T00:56:35.145Z,990.12
2019-01-20T00:57:35.296Z,990.17
2019-01-20T00:58:35.458Z,990.05
2019-01-20T00:59:35.638Z,990.13
2019-01-20T01:00:35.797Z,990.08
2019-01-20T01:01:35.965Z,990.08
2019-01-20T01:02:36.120Z,990.06
2019-01-20T01:03:36.288Z,990.01
2019-01-20T01:04:36.443Z,990.07
2019-01-20T01:05:36.617Z,990.06
2019-01-20T01:06:36.775Z,989.98
2019-01-20T01:07:36.952Z,990.03
2019-01-20T01:08:37.108Z,990.07
2019-01-20T01:09:37.275Z,990.04
2019-01-20T01:10:37.439Z,990.11
2019-01-20T01:11:37.603Z,990.06
2019-01-20T01:12:37.776Z,990.10
2019-01-20T01:13:37.946Z,990.11
2019-01-20T01:14:38.113Z,990.12
2019-01-20T01:15:38.298Z,990.10
2019-01-20T01:16:38.439Z,990.15
2019-01-20T01:17:38.620Z,990.13
2019-01-20T01:18:38.766Z,990.11
2019-01-20T01:19:38.941Z,990.11
2019-01-20T01:20:39.112Z,990.12
2019-01-20T01:21:39.255Z,990.10
2019-01-20T01:22:39.425Z,990.15
2019-01-20T01:23:39.582Z,990.13
2019-01-20T01:24:39.749Z,990.17
2019-01-20T01:25:39.913Z,990.14
2019-01-20T01:26:40.079Z,990.13
2019-01-20T01:27:40.249Z,990.11
2019-01-20T01:28:40.438Z,990.09
2019-01-20T01:29:40.587Z,990.13
2019-01-20T01:30:40.750Z,990.13
2019-01-20T01:31:40.913Z,990.08
2019-01-20T01:32:41.084Z,990.10
2019-01-20T01:33:41.250Z,990.10
2019-01-20T01:34:41.417Z,990.14
2019-01-20T01:35:41.605Z,990.14
2019-01-20T01:36:41.750Z,990.19
2019-01-20T01:37:41.912Z,990.14
2019-01-20T01:38:42.078Z,990.14
2019-01-20T01:39:42.248Z,990.11
2019-01-20T01:40:42.412Z,990.14
2019-01-20T01:41:42.576Z,990.17
2019-01-20T01:42:42.738Z,990.10
2019-01-20T01:43:42.916Z,990.14
2019-01-20T01:44:43.078Z,990.10
2019-01-20T01:45:43.249Z,990.13
2019-01-20T01:46:43.409Z,990.13
2019-01-20T01:47:43.571Z,990.09
2019-01-20T01:48:43.733Z,990.10
2019-01-20T01:49:43.913Z,990.08
2019-01-20T01:50:44.071Z,990.12
2019-01-20T01:51:44.237Z,990.13
2019-01-20T01:52:44.408Z,990.14
2019-01-20T01:53:44.570Z,990.18
2019-01-20T01:54:44.739Z,990.16
2019-01-20T01:55:44.912Z,990.14
2019-01-20T01:56:45.064Z,990.16
2019-01-20T01:57:45.237Z,990.11
2019-01-20T01:58:45.395Z,990.11
2019-01-20T01:59:45.572Z,990.11
2019-01-20T02:00:45.727Z,990.13
2019-01-20T02:01:45.897Z,990.15
2019-01-20T02:02:46.061Z,990.14
2019-01-20T02:03:46.224Z,990.16
2019-01-20T02:04:46.397Z,990.12
2019-01-20T02:05:46.553Z,990.16
2019-01-20T02:06:46.722Z,990.14
2019-01-20T02:07:46.886Z,990.12
2019-01-20T02:08:47.051Z,990.08
2019-01-20T02:09:47.228Z,990.13
2019-01-20T02:10:47.379Z,990.15
2019-01-20T02:11:47.546Z,990.09
2019-01-20T02:12:47.713Z,990.06
2019-01-20T02:13:47.883Z,990.13
2019-01-20T02:14:48.041Z,990.06
2019-01-20T02:15:48.208Z,990.06
2019-01-20T02:16:48.372Z,990.04
2019-01-20T02:17:48.544Z,990.03
2019-01-20T02:18:48.703Z,990.05
2019-01-20T02:19:48.866Z,990.06
2019-01-20T02:20:49.037Z,990.08
2019-01-20T02:21:49.206Z,990.11
2019-01-20T02:22:49.374Z,990.08
2019-01-20T02:23:49.539Z,990.09
2019-01-20T02:24:49.702Z,990.10
2019-01-20T02:25:49.870Z,990.12
2019-01-20T02:26:50.042Z,990.09
2019-01-20T02:27:50.204Z,990.18
2019-01-20T02:28:50.372Z,990.11
2019-01-20T02:29:50.561Z,990.19
2019-01-20T02:30:50.717Z,990.18
2019-01-20T02:31:50.883Z,990.18
2019-01-20T02:32:51.045Z,990.11
2019-01-20T02:33:51.211Z,990.14
2019-01-20T02:34:51.392Z,990.10
2019-01-20T02:35:51.604Z,990.11
2019-01-20T02:36:51.729Z,990.12
2019-01-20T02:37:51.885Z,990.08
2019-01-20T02:38:52.055Z,990.09
2019-01-20T02:39:52.220Z,990.15
2019-01-20T02:40:52.390Z,990.15
2019-01-20T02:41:55.332Z,990.08
2019-01-20T02:42:52.719Z,990.06
2019-01-20T02:43:52.886Z,990.08
2019-01-20T02:44:53.059Z,990.10
2019-01-20T02:45:53.213Z,990.05
2019-01-20T02:46:53.390Z,990.10
2019-01-20T02:47:53.545Z,990.09
2019-01-20T02:48:53.711Z,990.03
2019-01-20T02:49:53.886Z,990.04
2019-01-20T02:50:54.044Z,990.09
2019-01-20T02:51:54.213Z,990.09
2019-01-20T02:52:54.377Z,990.14
2019-01-20T02:53:54.547Z,990.07
2019-01-20T02:54:54.713Z,990.14
2019-01-20T02:55:54.882Z,990.06
2019-01-20T02:56:55.052Z,990.08
2019-01-20T02:57:55.213Z,990.11
2019-01-20T02:58:55.396Z,990.12
2019-01-20T02:59:55.545Z,990.06
2019-01-20T03:00:55.709Z,990.08
2019-01-20T03:01:55.867Z,990.09
2019-01-20T03:02:56.045Z,990.09
2019-01-20T03:03:56.200Z,990.12
2019-01-20T03:04:56.357Z,990.07
2019-01-20T03:05:56.518Z,990.07
2019-01-20T03:06:56.678Z,990.12
2019-01-20T03:07:56.852Z,990.04
2019-01-20T03:08:57.013Z,990.06
2019-01-20T03:09:57.188Z,990.05
2019-01-20T03:10:57.351Z,990.10
2019-01-20T03:12:03.518Z,990.04
2019-01-20T03:12:57.675Z,990.04
2019-01-20T03:13:57.844Z,990.04
2019-01-20T03:14:58.013Z,990.02
2019-01-20T03:15:58.176Z,990.02
2019-01-20T03:16:58.411Z,990.06
2019-01-20T03:17:58.513Z,990.04
2019-01-20T03:18:58.677Z,990.05
2019-01-20T03:19:58.846Z,990.09
2019-01-20T03:20:59.025Z,990.06
2019-01-20T03:21:59.171Z,990.05
2019-01-20T03:22:59.337Z,990.04
2019-01-20T03:23:59.504Z,990.02
2019-01-20T03:24:59.672Z,990.10
2019-01-20T03:25:59.836Z,990.08
2019-01-20T03:26:59.996Z,990.10
2019-01-20T03:28:00.169Z,990.08
2019-01-20T03:29:00.330Z,990.06
2019-01-20T03:31:00.665Z,990.06
2019-01-20T03:32:00.830Z,990.04
2019-01-20T03:33:01.011Z,990.07
2019-01-20T03:34:01.158Z,990.08
2019-01-20T03:35:01.324Z,990.07
2019-01-20T03:36:01.485Z,990.09
2019-01-20T03:37:01.646Z,990.11
2019-01-20T03:38:01.826Z,990.09
2019-01-20T03:39:01.993Z,990.13
2019-01-20T03:40:02.159Z,990.10
2019-01-20T03:41:02.320Z,990.11
2019-01-20T03:42:02.495Z,990.15
2019-01-20T03:43:02.653Z,990.11
2019-01-20T03:44:02.827Z,990.13
2019-01-20T03:45:02.983Z,990.12
2019-01-20T03:46:03.141Z,990.16
2019-01-20T03:47:03.314Z,990.16
2019-01-20T03:48:03.466Z,990.15
2019-01-20T03:49:03.636Z,990.15
2019-01-20T03:50:03.805Z,990.17
2019-01-20T03:51:03.991Z,990.19
2019-01-20T03:52:04.140Z,990.19
2019-01-20T03:53:04.319Z,990.16
2019-01-20T03:54:04.469Z,990.18
2019-01-20T03:55:04.634Z,990.14
2019-01-20T03:56:04.801Z,990.12
2019-01-20T03:57:04.974Z,990.16
2019-01-20T03:58:05.139Z,990.20
2019-01-20T03:59:05.294Z,990.15
2019-01-20T04:00:05.462Z,990.17
2019-01-20T04:01:05.635Z,990.14
2019-01-20T04:02:05.795Z,990.12
2019-01-20T04:03:05.968Z,990.11
2019-01-20T04:04:06.144Z,990.12
2019-01-20T04:05:06.293Z,990.08
2019-01-20T04:06:06.451Z,990.09
2019-01-20T04:07:06.613Z,990.10
2019-01-20T04:08:06.786Z,990.13
2019-01-20T04:09:06.951Z,990.06
2019-01-20T04:10:07.114Z,990.13
2019-01-20T04:11:07.282Z,990.11
2019-01-20T04:12:07.450Z,990.10
2019-01-20T04:13:07.614Z,990.08
2019-01-20T04:14:07.784Z,990.11
2019-01-20T04:15:07.945Z,990.12
2019-01-20T04:16:08.114Z,990.08
2019-01-20T04:17:08.271Z,990.06
2019-01-20T04:18:08.443Z,990.07
2019-01-20T04:19:08.608Z,990.10
2019-01-20T04:20:08.773Z,990.15
2019-01-20T04:21:08.938Z,990.09
2019-01-20T04:22:09.106Z,990.14
2019-01-20T04:23:09.270Z,990.09
2019-01-20T04:24:09.437Z,990.10
2019-01-20T04:25:09.607Z,990.18
2019-01-20T04:26:09.765Z,990.07
2019-01-20T04:27:09.928Z,990.10
2019-01-20T04:28:10.092Z,990.11
2019-01-20T04:29:10.257Z,990.10
2019-01-20T04:30:10.427Z,990.07
2019-01-20T04:31:10.629Z,990.09
2019-01-20T04:32:10.759Z,990.09
2019-01-20T04:33:10.926Z,990.08
2019-01-20T04:34:11.103Z,990.03
2019-01-20T04:35:11.290Z,990.08
2019-01-20T04:36:11.429Z,990.12
2019-01-20T04:37:11.596Z,990.03
2019-01-20T04:38:11.759Z,990.05
2019-01-20T04:39:11.925Z,990.04
2019-01-20T04:40:12.091Z,990.00
2019-01-20T04:41:12.254Z,990.00
2019-01-20T04:42:12.422Z,990.03
2019-01-20T04:43:12.589Z,990.00
2019-01-20T04:44:12.756Z,990.01
2019-01-20T04:45:12.945Z,989.98
2019-01-20T04:46:13.076Z,990.02
2019-01-20T04:47:13.254Z,990.01
2019-01-20T04:48:13.419Z,989.95
2019-01-20T04:49:13.576Z,990.01
2019-01-20T04:50:13.751Z,990.04
2019-01-20T04:51:13.917Z,989.99
2019-01-20T04:52:14.095Z,990.04
2019-01-20T04:53:14.253Z,989.95
2019-01-20T04:54:14.412Z,989.99
2019-01-20T04:55:14.580Z,989.96
2019-01-20T04:56:14.748Z,989.92
2019-01-20T04:57:14.920Z,989.95
2019-01-20T04:58:15.077Z,989.95
2019-01-20T04:59:15.234Z,989.97
2019-01-20T05:00:15.413Z,989.97
2019-01-20T05:01:15.573Z,989.91
2019-01-20T05:02:15.745Z,989.96
2019-01-20T05:03:15.912Z,990.00
2019-01-20T05:04:16.060Z,989.99
2019-01-20T05:05:16.243Z,990.00
2019-01-20T05:06:16.426Z,989.96
2019-01-20T05:07:16.577Z,990.02
2019-01-20T05:08:16.745Z,990.05
2019-01-20T05:09:16.896Z,990.01
2019-01-20T05:10:17.103Z,990.04
2019-01-20T05:11:17.251Z,990.03
2019-01-20T05:12:17.399Z,990.02
2019-01-20T05:13:17.566Z,989.97
2019-01-20T05:14:17.740Z,990.00
2019-01-20T05:15:17.928Z,990.06
2019-01-20T05:16:18.098Z,990.00
2019-01-20T05:17:18.256Z,990.04
2019-01-20T05:18:18.423Z,990.03
2019-01-20T05:19:18.604Z,990.02
2019-01-20T05:20:18.748Z,990.07
2019-01-20T05:21:18.919Z,990.00
2019-01-20T05:22:19.082Z,990.00
2019-01-20T05:23:19.244Z,990.02
2019-01-20T05:24:19.417Z,990.05
2019-01-20T05:25:19.580Z,990.07
2019-01-20T05:26:19.747Z,990.06
2019-01-20T05:27:19.913Z,990.03
2019-01-20T05:28:20.081Z,990.02
2019-01-20T05:29:20.241Z,990.03
2019-01-20T05:30:20.409Z,990.03
2019-01-20T05:31:20.579Z,990.08
2019-01-20T05:32:20.745Z,990.04
2019-01-20T05:33:20.907Z,990.04
2019-01-20T05:34:21.071Z,990.05
2019-01-20T05:35:21.238Z,990.02
2019-01-20T05:36:21.405Z,990.04
2019-01-20T05:37:21.592Z,990.04
2019-01-20T05:38:21.737Z,990.06
2019-01-20T05:39:21.917Z,990.04
2019-01-20T05:40:22.065Z,990.10
2019-01-20T05:41:22.233Z,990.11
2019-01-20T05:42:22.395Z,990.11
2019-01-20T05:43:22.556Z,990.10
2019-01-20T05:44:22.727Z,990.16
2019-01-20T05:45:22.889Z,990.13
2019-01-20T05:46:23.051Z,990.18
2019-01-20T05:47:23.207Z,990.18
2019-01-20T05:48:23.371Z,990.14
2019-01-20T05:49:23.538Z,990.15
2019-01-20T05:50:23.703Z,990.17
2019-01-20T05:51:23.869Z,990.11
2019-01-20T05:52:24.028Z,990.20
2019-01-20T05:53:24.195Z,990.14
2019-01-20T05:54:24.361Z,990.14
2019-01-20T05:55:24.514Z,990.11
2019-01-20T05:56:24.699Z,990.17
2019-01-20T05:57:24.849Z,990.16
2019-01-20T05:58:25.010Z,990.14
2019-01-20T05:59:25.169Z,990.17
2019-01-20T06:00:25.332Z,990.17
2019-01-20T06:01:25.495Z,990.19
2019-01-20T06:02:25.659Z,990.21
2019-01-20T06:03:25.829Z,990.18
2019-01-20T06:04:25.994Z,990.16
2019-01-20T06:05:26.163Z,990.19
2019-01-20T06:06:26.327Z,990.16
2019-01-20T06:07:26.489Z,990.16
2019-01-20T06:08:26.654Z,990.20
2019-01-20T06:09:26.830Z,990.17
2019-01-20T06:10:26.984Z,990.22
2019-01-20T06:11:27.154Z,990.22
2019-01-20T06:12:27.309Z,990.21
2019-01-20T06:13:27.472Z,990.19
2019-01-20T06:14:27.647Z,990.23
2019-01-20T06:15:27.808Z,990.24
2019-01-20T06:16:27.976Z,990.23
2019-01-20T06:17:28.142Z,990.21
2019-01-20T06:18:28.309Z,990.26
2019-01-20T06:19:28.477Z,990.22
2019-01-20T06:20:28.655Z,990.25
2019-01-20T06:21:28.799Z,990.22
2019-01-20T06:22:29.814Z,990.26
2019-01-20T06:23:29.125Z,990.26
2019-01-20T06:24:29.292Z,990.26
2019-01-20T06:25:29.458Z,990.26
2019-01-20T06:26:29.623Z,990.31
2019-01-20T06:27:29.790Z,990.27
2019-01-20T06:28:29.959Z,990.27
2019-01-20T06:29:30.118Z,990.29
2019-01-20T06:30:30.294Z,990.29
2019-01-20T06:31:30.443Z,990.30
2019-01-20T06:32:30.608Z,990.26
2019-01-20T06:33:30.790Z,990.27
2019-01-20T06:34:30.942Z,990.27
2019-01-20T06:35:31.114Z,990.28
2019-01-20T06:36:31.267Z,990.31
2019-01-20T06:37:31.432Z,990.29
2019-01-20T06:38:31.599Z,990.36
2019-01-20T06:39:31.761Z,990.40
2019-01-20T06:40:31.920Z,990.42
2019-01-20T06:41:32.080Z,990.46
2019-01-20T06:42:32.252Z,990.43
2019-01-20T06:43:32.425Z,990.46
2019-01-20T06:44:32.584Z,990.50
2019-01-20T06:45:32.747Z,990.44
2019-01-20T06:46:32.922Z,990.48
2019-01-20T06:47:33.077Z,990.52
2019-01-20T06:48:33.258Z,990.49
2019-01-20T06:49:33.425Z,990.53
2019-01-20T06:50:33.602Z,990.56
2019-01-20T06:51:33.752Z,990.54
2019-01-20T06:52:33.914Z,990.57
2019-01-20T06:53:34.103Z,990.58
2019-01-20T06:54:34.274Z,990.57
2019-01-20T06:55:34.444Z,990.62
2019-01-20T06:56:34.599Z,990.58
2019-01-20T06:57:34.765Z,990.57
2019-01-20T06:58:34.922Z,990.67
2019-01-20T06:59:35.115Z,990.68
2019-01-20T07:00:36.531Z,990.65
2019-01-20T07:01:35.434Z,990.66
2019-01-20T07:02:35.599Z,990.72
2019-01-20T07:03:35.759Z,990.73
2019-01-20T07:04:35.924Z,990.75
2019-01-20T07:05:36.093Z,990.75
2019-01-20T07:06:36.259Z,990.80
2019-01-20T07:07:36.423Z,990.80
2019-01-20T07:08:36.581Z,990.86
2019-01-20T07:09:36.758Z,990.84
2019-01-20T07:10:36.929Z,990.84
2019-01-20T07:11:37.108Z,990.89
2019-01-20T07:12:37.234Z,990.92
2019-01-20T07:13:37.418Z,990.88
2019-01-20T07:14:37.585Z,990.94
2019-01-20T07:15:37.756Z,990.93
2019-01-20T07:16:37.905Z,990.93
2019-01-20T07:17:38.071Z,990.93
2019-01-20T07:18:38.234Z,990.90
2019-01-20T07:19:38.409Z,990.97
2019-01-20T07:20:38.572Z,990.92
2019-01-20T07:21:38.724Z,990.95
2019-01-20T07:22:38.899Z,990.95
2019-01-20T07:23:39.065Z,990.98
2019-01-20T07:24:39.267Z,990.95
2019-01-20T07:25:39.390Z,990.96
2019-01-20T07:26:39.558Z,990.95
2019-01-20T07:27:39.738Z,990.94
2019-01-20T07:28:39.897Z,990.98
2019-01-20T07:29:40.048Z,991.01
2019-01-20T07:30:40.224Z,991.02
2019-01-20T07:31:40.380Z,991.04
2019-01-20T07:32:40.543Z,991.04
2019-01-20T07:33:40.715Z,990.95
2019-01-20T07:34:40.863Z,991.00
2019-01-20T07:35:41.054Z,991.00
2019-01-20T07:36:41.211Z,991.00
2019-01-20T07:37:41.395Z,991.01
2019-01-20T07:38:41.539Z,990.99
2019-01-20T07:39:41.712Z,991.04
2019-01-20T07:40:41.856Z,991.04
2019-01-20T07:41:42.042Z,991.07
2019-01-20T07:42:42.174Z,991.02
2019-01-20T07:43:42.357Z,991.02
2019-01-20T07:44:42.502Z,991.04
2019-01-20T07:45:42.670Z,991.10
2019-01-20T07:46:42.826Z,991.07
2019-01-20T07:47:43.001Z,991.03
2019-01-20T07:48:43.154Z,991.06
2019-01-20T07:49:43.322Z,991.09
2019-01-20T07:50:43.479Z,991.10
2019-01-20T07:51:43.651Z,991.08
2019-01-20T07:52:43.825Z,991.10
2019-01-20T07:53:43.970Z,991.10
2019-01-20T07:54:44.138Z,991.13
2019-01-20T07:55:44.313Z,991.10
2019-01-20T07:56:44.487Z,991.13
2019-01-20T07:57:44.636Z,991.17
2019-01-20T07:58:44.811Z,991.15
2019-01-20T07:59:44.960Z,991.17
2019-01-20T08:00:45.128Z,991.20
2019-01-20T08:01:45.287Z,991.17
2019-01-20T08:02:45.461Z,991.18
2019-01-20T08:03:45.621Z,991.18
2019-01-20T08:04:45.791Z,991.21
2019-01-20T08:05:45.968Z,991.19
2019-01-20T08:06:46.119Z,991.20
2019-01-20T08:07:46.300Z,991.24
2019-01-20T08:08:46.461Z,991.26
2019-01-20T08:09:46.629Z,991.26
2019-01-20T08:10:46.795Z,991.28
2019-01-20T08:11:46.973Z,991.24
2019-01-20T08:12:47.127Z,991.26
2019-01-20T08:13:47.303Z,991.24
2019-01-20T08:14:47.453Z,991.25
2019-01-20T08:15:47.622Z,991.33
2019-01-20T08:16:47.809Z,991.31
2019-01-20T08:17:47.973Z,991.38
2019-01-20T08:18:48.150Z,991.39
2019-01-20T08:19:48.310Z,991.38
2019-01-20T08:20:48.473Z,991.39
2019-01-20T08:21:48.642Z,991.40
2019-01-20T08:22:48.808Z,991.40
2019-01-20T08:23:48.988Z,991.43
2019-01-20T08:24:49.140Z,991.39
2019-01-20T08:25:50.742Z,991.39
2019-01-20T08:26:49.466Z,991.39
2019-01-20T08:27:49.651Z,991.41
2019-01-20T08:28:49.796Z,991.41
2019-01-20T08:29:49.968Z,991.39
2019-01-20T08:30:50.125Z,991.50
2019-01-20T08:31:50.285Z,991.45
2019-01-20T08:32:50.451Z,991.49
2019-01-20T08:33:50.620Z,991.50
2019-01-20T08:34:50.800Z,991.54
2019-01-20T08:35:50.949Z,991.53
2019-01-20T08:36:51.130Z,991.51
2019-01-20T08:37:51.273Z,991.56
2019-01-20T08:38:51.454Z,991.55
2019-01-20T08:39:51.643Z,991.57
2019-01-20T08:40:51.795Z,991.53
2019-01-20T08:41:51.959Z,991.54
2019-01-20T08:42:52.129Z,991.55
2019-01-20T08:43:52.294Z,991.56
2019-01-20T08:44:52.451Z,991.60
2019-01-20T08:45:52.623Z,991.55
2019-01-20T08:46:52.790Z,991.59
2019-01-20T08:47:52.944Z,991.58
2019-01-20T08:48:53.121Z,991.68
2019-01-20T08:49:53.293Z,991.72
2019-01-20T08:50:53.464Z,991.66
2019-01-20T08:51:53.625Z,991.64
2019-01-20T08:52:53.796Z,991.67
2019-01-20T08:53:53.955Z,991.64
2019-01-20T08:54:54.123Z,991.72
2019-01-20T08:55:54.296Z,991.73
2019-01-20T08:56:54.441Z,991.66
2019-01-20T08:57:54.633Z,991.73
2019-01-20T08:58:54.768Z,991.68
2019-01-20T08:59:54.934Z,991.64
2019-01-20T09:00:55.091Z,991.68
2019-01-20T09:01:55.324Z,991.67
2019-01-20T09:02:55.436Z,991.66
2019-01-20T09:03:55.600Z,991.71
2019-01-20T09:04:55.760Z,991.76
2019-01-20T09:05:55.967Z,991.72
2019-01-20T09:06:56.094Z,991.77
2019-01-20T09:07:56.249Z,991.74
2019-01-20T09:08:56.424Z,991.79
2019-01-20T09:09:56.582Z,991.83
2019-01-20T09:10:56.754Z,991.80
2019-01-20T09:11:56.925Z,991.81
2019-01-20T09:12:57.103Z,991.86
2019-01-20T09:13:57.264Z,991.80
2019-01-20T09:14:57.432Z,991.87
2019-01-20T09:15:57.584Z,991.85
2019-01-20T09:16:57.748Z,991.87
2019-01-20T09:17:58.828Z,991.85
2019-01-20T09:18:58.823Z,991.89
2019-01-20T09:19:58.235Z,991.88
2019-01-20T09:20:58.407Z,991.90
2019-01-20T09:21:58.571Z,991.88
2019-01-20T09:22:58.748Z,991.95
2019-01-20T09:23:58.924Z,991.91
2019-01-20T09:24:59.068Z,991.94
2019-01-20T09:25:59.237Z,991.92
2019-01-20T09:26:59.402Z,991.96
2019-01-20T09:27:59.569Z,991.91
2019-01-20T09:28:59.746Z,991.92
2019-01-20T09:29:59.907Z,991.91
2019-01-20T09:31:00.076Z,991.87
2019-01-20T09:32:00.246Z,991.87
2019-01-20T09:33:00.430Z,991.88
2019-01-20T09:34:00.585Z,991.90
2019-01-20T09:35:00.747Z,991.89
2019-01-20T09:36:00.917Z,991.91
2019-01-20T09:37:01.084Z,991.93
2019-01-20T09:38:01.273Z,991.98
2019-01-20T09:39:01.424Z,991.92
2019-01-20T09:40:01.618Z,991.94
2019-01-20T09:41:01.749Z,991.96
2019-01-20T09:42:01.913Z,991.94
2019-01-20T09:43:02.095Z,991.98
2019-01-20T09:44:02.236Z,992.03
2019-01-20T09:45:02.425Z,992.03
2019-01-20T09:46:02.590Z,992.03
2019-01-20T09:47:02.769Z,992.10
2019-01-20T09:48:02.925Z,992.08
2019-01-20T09:49:03.102Z,992.11
2019-01-20T09:50:03.276Z,992.09
2019-01-20T09:51:03.451Z,992.07
2019-01-20T09:52:03.608Z,992.04
2019-01-20T09:53:03.788Z,992.01
2019-01-20T09:54:03.944Z,992.02
2019-01-20T09:55:04.112Z,992.02
2019-01-20T09:56:04.289Z,992.01
2019-01-20T09:57:04.457Z,992.03
2019-01-20T09:58:04.633Z,992.04
2019-01-20T09:59:04.796Z,992.08
2019-01-20T10:00:04.997Z,992.09
2019-01-20T10:01:05.160Z,992.06
2019-01-20T10:02:05.335Z,992.06
2019-01-20T10:03:05.494Z,992.02
2019-01-20T10:04:05.663Z,992.05
2019-01-20T10:05:05.829Z,992.07
2019-01-20T10:06:05.999Z,992.09
2019-01-20T10:07:06.181Z,992.07
2019-01-20T10:08:06.341Z,992.08
2019-01-20T10:09:06.523Z,992.09
2019-01-20T10:10:06.681Z,992.15
2019-01-20T10:11:06.857Z,992.07
2019-01-20T10:12:07.019Z,992.08
2019-01-20T10:13:07.200Z,992.09
2019-01-20T10:14:07.360Z,992.13
2019-01-20T10:15:07.533Z,992.03
2019-01-20T10:16:07.704Z,992.11
2019-01-20T10:17:07.883Z,992.12
2019-01-20T10:18:08.068Z,992.09
2019-01-20T10:19:08.222Z,992.09
2019-01-20T10:20:08.392Z,992.12
2019-01-20T10:21:08.568Z,992.13
2019-01-20T10:22:08.747Z,992.15
2019-01-20T10:23:08.901Z,992.15
2019-01-20T10:24:09.072Z,992.15
2019-01-20T10:25:15.029Z,992.18
2019-01-20T10:26:09.413Z,992.14
2019-01-20T10:27:09.584Z,992.16
2019-01-20T10:28:09.758Z,992.21
2019-01-20T10:29:09.924Z,992.18
2019-01-20T10:30:10.099Z,992.25
2019-01-20T10:31:10.280Z,992.14
2019-01-20T10:32:10.440Z,992.20
2019-01-20T10:33:10.614Z,992.23
2019-01-20T10:34:10.791Z,992.20
2019-01-20T10:35:10.969Z,992.25
2019-01-20T10:36:11.141Z,992.24
2019-01-20T10:37:11.308Z,992.29
2019-01-20T10:38:11.474Z,992.32
2019-01-20T10:39:11.642Z,992.33
2019-01-20T10:40:11.820Z,992.30
2019-01-20T10:41:11.995Z,992.32
2019-01-20T10:42:12.180Z,992.35
2019-01-20T10:43:12.347Z,992.29
2019-01-20T10:44:12.520Z,992.31
2019-01-20T10:45:12.700Z,992.31
2019-01-20T10:46:12.865Z,992.28
2019-01-20T10:47:13.038Z,992.27
2019-01-20T10:48:13.215Z,992.29
2019-01-20T10:49:13.387Z,992.30
2019-01-20T10:50:13.569Z,992.30
2019-01-20T10:51:13.746Z,992.32
2019-01-20T10:52:13.912Z,992.32
2019-01-20T10:53:14.095Z,992.34
2019-01-20T10:54:14.275Z,992.34
2019-01-20T10:55:14.432Z,992.38
2019-01-20T10:56:14.608Z,992.36
2019-01-20T10:57:14.782Z,992.36
2019-01-20T10:58:14.971Z,992.30
2019-01-20T10:59:15.130Z,992.36
2019-01-20T11:00:15.319Z,992.35
2019-01-20T11:01:15.491Z,992.33
2019-01-20T11:02:15.659Z,992.33
2019-01-20T11:03:15.828Z,992.32
2019-01-20T11:04:16.005Z,992.31
2019-01-20T11:05:16.177Z,992.29
2019-01-20T11:06:16.354Z,992.33
2019-01-20T11:07:16.532Z,992.29
2019-01-20T11:08:16.717Z,992.32
2019-01-20T11:09:16.940Z,992.34
2019-01-20T11:10:17.057Z,992.34
2019-01-20T11:11:17.234Z,992.26
2019-01-20T11:12:17.493Z,992.30
2019-01-20T11:13:17.596Z,992.31
2019-01-20T11:14:17.774Z,992.33
2019-01-20T11:15:17.953Z,992.30
2019-01-20T11:16:18.132Z,992.29
2019-01-20T11:17:18.316Z,992.37
2019-01-20T11:18:18.482Z,992.31
2019-01-20T11:19:18.663Z,992.35
2019-01-20T11:20:18.867Z,992.33
2019-01-20T11:21:19.055Z,992.35
2019-01-20T11:22:19.249Z,992.32
2019-01-20T11:23:19.409Z,992.35
2019-01-20T11:24:19.592Z,992.35
2019-01-20T11:25:19.769Z,992.34
2019-01-20T11:26:19.950Z,992.35
2019-01-20T11:27:20.133Z,992.34
2019-01-20T11:28:20.327Z,992.35
2019-01-20T11:29:20.486Z,992.39
2019-01-20T11:30:20.674Z,992.38
2019-01-20T11:31:20.841Z,992.38
2019-01-20T11:32:21.018Z,992.40
2019-01-20T11:33:21.196Z,992.38
2019-01-20T11:34:21.380Z,992.41
2019-01-20T11:35:22.761Z,992.38
2019-01-20T11:36:21.730Z,992.41
2019-01-20T11:37:21.905Z,992.41
2019-01-20T11:38:22.098Z,992.43
2019-01-20T11:39:22.275Z,992.45
2019-01-20T11:41:22.624Z,992.41
2019-01-20T11:42:22.781Z,992.43
2019-01-20T11:43:22.945Z,992.40
2019-01-20T11:44:23.135Z,992.43
2019-01-20T11:45:23.313Z,992.40
2019-01-20T11:46:23.495Z,992.44
2019-01-20T11:47:23.677Z,992.42
2019-01-20T11:48:23.840Z,992.42
2019-01-20T11:49:24.021Z,992.37
2019-01-20T11:50:24.199Z,992.38
2019-01-20T11:51:24.375Z,992.39
2019-01-20T11:52:24.551Z,992.39
2019-01-20T11:53:24.731Z,992.37
2019-01-20T11:54:24.898Z,992.41
2019-01-20T11:55:25.077Z,992.42
2019-01-20T11:56:25.254Z,992.43
2019-01-20T11:57:25.442Z,992.44
2019-01-20T11:58:25.614Z,992.40
2019-01-20T11:59:25.785Z,992.41
2019-01-20T12:00:25.969Z,992.37
2019-01-20T12:01:26.140Z,992.31
2019-01-20T12:02:26.316Z,992.32
2019-01-20T12:03:26.514Z,992.34
2019-01-20T12:04:26.675Z,992.28
2019-01-20T12:05:26.856Z,992.28
2019-01-20T12:06:27.026Z,992.33
2019-01-20T12:07:27.217Z,992.32
2019-01-20T12:08:30.679Z,992.29
2019-01-20T12:09:27.561Z,992.32
2019-01-20T12:10:27.739Z,992.31
2019-01-20T12:11:28.883Z,992.29
2019-01-20T12:12:28.079Z,992.34
2019-01-20T12:13:28.258Z,992.26
2019-01-20T12:14:28.423Z,992.30
2019-01-20T12:15:28.610Z,992.31
2019-01-20T12:16:28.781Z,992.26
2019-01-20T12:17:28.964Z,992.28
2019-01-20T12:18:29.173Z,992.28
2019-01-20T12:19:29.325Z,992.29
2019-01-20T12:20:29.502Z,992.32
2019-01-20T12:21:29.691Z,992.32
2019-01-20T12:22:29.855Z,992.29
2019-01-20T12:23:30.028Z,992.28
2019-01-20T12:24:30.208Z,992.28
2019-01-20T12:25:30.391Z,992.28
2019-01-20T12:26:30.574Z,992.27
2019-01-20T12:27:30.754Z,992.29
2019-01-20T12:28:30.946Z,992.27
2019-01-20T12:29:31.106Z,992.27
2019-01-20T12:30:31.286Z,992.25
2019-01-20T12:31:31.463Z,992.26
2019-01-20T12:32:31.646Z,992.20